sensor_id;sensor_type;location;lat;lon;timestamp;pressure;altitude;pressure_sealevel;temperature;humidity
36354;BME280;22383;51.114;13.666;2023-02-15T00:00:10;67148.09;;;-0.44;100.00
36354;BME280;22383;51.114;13.666;2023-02-15T00:02:39;67146.41;;;-0.45;100.00
36354;BME280;22383;51.114;13.666;2023-02-15T00:05:08;67147.16;;;-0.42;100.00
36354;BME280;22383;51.114;13.666;2023-02-15T00:07:39;67144.94;;;-0.44;100.00
36354;BME280;22383;51.114;13.666;2023-02-15T00:10:07;67145.50;;;-0.44;100.00
36354;BME280;22383;51.114;13.666;2023-02-15T00:12:39;67146.78;;;-0.47;100.00
36354;BME280;22383;51.114;13.666;2023-02-15T00:15:12;67145.84;;;-0.46;100.00
36354;BME280;22383;51.114;13.666;2023-02-15T00:17:40;67144.72;;;-0.47;100.00
36354;BME280;22383;51.114;13.666;2023-02-15T00:20:07;67138.75;;;-0.50;100.00
36354;BME280;22383;51.114;13.666;2023-02-15T00:22:35;67139.88;;;-0.49;100.00
36354;BME280;22383;51.114;13.666;2023-02-15T00:25:03;67141.72;;;-0.52;100.00
36354;BME280;22383;51.114;13.666;2023-02-15T00:27:33;67142.81;;;-0.51;100.00
36354;BME280;22383;51.114;13.666;2023-02-15T00:30:10;67135.94;;;-0.52;100.00
36354;BME280;22383;51.114;13.666;2023-02-15T00:32:43;67139.47;;;-0.54;100.00
36354;BME280;22383;51.114;13.666;2023-02-15T00:35:12;67128.66;;;-0.59;100.00
36354;BME280;22383;51.114;13.666;2023-02-15T00:37:39;67126.97;;;-0.61;100.00
36354;BME280;22383;51.114;13.666;2023-02-15T00:40:08;67125.06;;;-0.65;100.00
36354;BME280;22383;51.114;13.666;2023-02-15T00:42:36;67121.91;;;-0.65;100.00
36354;BME280;22383;51.114;13.666;2023-02-15T00:45:08;67118.53;;;-0.68;100.00
36354;BME280;22383;51.114;13.666;2023-02-15T00:47:35;67121.91;;;-0.65;100.00
36354;BME280;22383;51.114;13.666;2023-02-15T00:50:03;67118.19;;;-0.66;100.00
36354;BME280;22383;51.114;13.666;2023-02-15T00:52:30;67117.63;;;-0.67;100.00
36354;BME280;22383;51.114;13.666;2023-02-15T00:54:57;67118.53;;;-0.68;100.00
36354;BME280;22383;51.114;13.666;2023-02-15T00:57:32;67120.78;;;-0.66;100.00
36354;BME280;22383;51.114;13.666;2023-02-15T01:00:05;67119.66;;;-0.67;100.00
36354;BME280;22383;51.114;13.666;2023-02-15T01:02:36;67121.69;;;-0.68;100.00
36354;BME280;22383;51.114;13.666;2023-02-15T01:05:04;67111.44;;;-0.72;100.00
36354;BME280;22383;51.114;13.666;2023-02-15T01:07:33;67114.59;;;-0.72;100.00
36354;BME280;22383;51.114;13.666;2023-02-15T01:10:01;67113.84;;;-0.75;100.00
36354;BME280;22383;51.114;13.666;2023-02-15T01:12:41;67106.19;;;-0.80;100.00
36354;BME280;22383;51.114;13.666;2023-02-15T01:15:16;67109.34;;;-0.79;100.00
36354;BME280;22383;51.114;13.666;2023-02-15T01:17:44;67116.22;;;-0.78;100.00
36354;BME280;22383;51.114;13.666;2023-02-15T01:20:23;67105.06;;;-0.81;100.00
36354;BME280;22383;51.114;13.666;2023-02-15T01:22:57;67105.97;;;-0.82;100.00
36354;BME280;22383;51.114;13.666;2023-02-15T01:25:26;67102.81;;;-0.83;100.00
36354;BME280;22383;51.114;13.666;2023-02-15T01:27:59;67104.28;;;-0.84;100.00
36354;BME280;22383;51.114;13.666;2023-02-15T01:30:29;67102.81;;;-0.83;100.00
36354;BME280;22383;51.114;13.666;2023-02-15T01:32:56;67098.53;;;-0.84;100.00
36354;BME280;22383;51.114;13.666;2023-02-15T01:35:25;67097.19;;;-0.88;100.00
36354;BME280;22383;51.114;13.666;2023-02-15T01:38:10;67096.44;;;-0.91;100.00
36354;BME280;22383;51.114;13.666;2023-02-15T01:40:42;67096.06;;;-0.89;100.00
36354;BME280;22383;51.114;13.666;2023-02-15T01:43:14;67104.06;;;-0.86;100.00
36354;BME280;22383;51.114;13.666;2023-02-15T01:45:50;67095.72;;;-0.87;100.00
36354;BME280;22383;51.114;13.666;2023-02-15T01:48:22;67100.38;;;-0.87;100.00
36354;BME280;22383;51.114;13.666;2023-02-15T01:50:56;67087.50;;;-0.92;100.00
36354;BME280;22383;51.114;13.666;2023-02-15T01:53:38;67100.13;;;-0.90;100.00
36354;BME280;22383;51.114;13.666;2023-02-15T01:56:27;67094.16;;;-0.93;100.00
36354;BME280;22383;51.114;13.666;2023-02-15T01:58:58;67090.25;;;-0.97;100.00
36354;BME280;22383;51.114;13.666;2023-02-15T02:01:27;67085.19;;;-1.01;100.00
36354;BME280;22383;51.114;13.666;2023-02-15T02:06:41;67086.09;;;-1.03;100.00
36354;BME280;22383;51.114;13.666;2023-02-15T02:09:09;67083.50;;;-1.03;100.00
36354;BME280;22383;51.114;13.666;2023-02-15T02:11:41;67082.38;;;-1.04;100.00
36354;BME280;22383;51.114;13.666;2023-02-15T02:14:32;67079.03;;;-1.07;100.00
36354;BME280;22383;51.114;13.666;2023-02-15T02:20:16;67076.56;;;-1.11;100.00
36354;BME280;22383;51.114;13.666;2023-02-15T02:26:11;67069.69;;;-1.13;100.00
36354;BME280;22383;51.114;13.666;2023-02-15T02:34:42;67063.88;;;-1.21;100.00
36354;BME280;22383;51.114;13.666;2023-02-15T02:40:34;67056.22;;;-1.25;100.00
36354;BME280;22383;51.114;13.666;2023-02-15T02:43:33;67065.56;;;-1.19;100.00
36354;BME280;22383;51.114;13.666;2023-02-15T02:46:28;67064.97;;;-1.20;100.00
36354;BME280;22383;51.114;13.666;2023-02-15T02:49:01;67054.16;;;-1.25;100.00
36354;BME280;22383;51.114;13.666;2023-02-15T02:51:37;67061.59;;;-1.23;100.00
36354;BME280;22383;51.114;13.666;2023-02-15T02:54:06;67053.41;;;-1.28;100.00
36354;BME280;22383;51.114;13.666;2023-02-15T02:56:43;67058.25;;;-1.26;100.00
36354;BME280;22383;51.114;13.666;2023-02-15T02:59:20;67061.41;;;-1.25;100.00
36354;BME280;22383;51.114;13.666;2023-02-15T03:02:04;67055.31;;;-1.24;100.00
36354;BME280;22383;51.114;13.666;2023-02-15T03:04:54;67061.28;;;-1.21;100.00
36354;BME280;22383;51.114;13.666;2023-02-15T03:07:29;67053.63;;;-1.25;100.00
36354;BME280;22383;51.114;13.666;2023-02-15T03:10:05;67053.97;;;-1.27;100.00
36354;BME280;22383;51.114;13.666;2023-02-15T03:12:36;67063.09;;;-1.24;100.00
36354;BME280;22383;51.114;13.666;2023-02-15T03:15:17;67059.00;;;-1.23;100.00
36354;BME280;22383;51.114;13.666;2023-02-15T03:17:56;67053.81;;;-1.23;100.00
36354;BME280;22383;51.114;13.666;2023-02-15T03:20:36;67059.22;;;-1.20;100.00
36354;BME280;22383;51.114;13.666;2023-02-15T03:23:22;67059.78;;;-1.20;100.00
36354;BME280;22383;51.114;13.666;2023-02-15T03:25:52;67068.16;;;-1.19;100.00
36354;BME280;22383;51.114;13.666;2023-02-15T03:28:55;67068.16;;;-1.19;100.00
36354;BME280;22383;51.114;13.666;2023-02-15T03:31:31;67069.25;;;-1.18;100.00
36354;BME280;22383;51.114;13.666;2023-02-15T03:34:13;67069.25;;;-1.18;100.00
36354;BME280;22383;51.114;13.666;2023-02-15T03:37:03;67063.28;;;-1.21;100.00
36354;BME280;22383;51.114;13.666;2023-02-15T03:42:32;67061.28;;;-1.21;100.00
36354;BME280;22383;51.114;13.666;2023-02-15T03:45:13;67065.75;;;-1.17;100.00
36354;BME280;22383;51.114;13.666;2023-02-15T03:47:46;67066.31;;;-1.16;100.00
36354;BME280;22383;51.114;13.666;2023-02-15T03:50:20;67064.06;;;-1.18;100.00
36354;BME280;22383;51.114;13.666;2023-02-15T03:53:11;67063.88;;;-1.21;100.00
36354;BME280;22383;51.114;13.666;2023-02-15T03:55:40;67068.56;;;-1.14;100.00
36354;BME280;22383;51.114;13.666;2023-02-15T03:58:07;67066.31;;;-1.16;100.00
36354;BME280;22383;51.114;13.666;2023-02-15T04:00:58;67066.66;;;-1.18;100.00
36354;BME280;22383;51.114;13.666;2023-02-15T04:03:50;67063.28;;;-1.21;100.00
36354;BME280;22383;51.114;13.666;2023-02-15T04:06:21;67053.06;;;-1.26;100.00
36354;BME280;22383;51.114;13.666;2023-02-15T04:08:51;67055.66;;;-1.26;100.00
36354;BME280;22383;51.114;13.666;2023-02-15T04:11:37;67055.66;;;-1.26;100.00
36354;BME280;22383;51.114;13.666;2023-02-15T04:14:04;67055.44;;;-1.28;100.00
36354;BME280;22383;51.114;13.666;2023-02-15T04:16:51;67050.59;;;-1.30;100.00
36354;BME280;22383;51.114;13.666;2023-02-15T04:19:18;67044.63;;;-1.34;100.00
36354;BME280;22383;51.114;13.666;2023-02-15T04:22:04;67050.03;;;-1.31;100.00
36354;BME280;22383;51.114;13.666;2023-02-15T04:24:50;67046.66;;;-1.34;100.00
36354;BME280;22383;51.114;13.666;2023-02-15T04:27:36;67047.81;;;-1.33;100.00
36354;BME280;22383;51.114;13.666;2023-02-15T04:30:04;67046.13;;;-1.35;100.00
36354;BME280;22383;51.114;13.666;2023-02-15T04:32:32;67042.75;;;-1.38;100.00
36354;BME280;22383;51.114;13.666;2023-02-15T04:35:00;67046.13;;;-1.35;100.00
36354;BME280;22383;51.114;13.666;2023-02-15T04:37:27;67046.13;;;-1.35;100.00
36354;BME280;22383;51.114;13.666;2023-02-15T04:39:55;67040.69;;;-1.37;100.00
36354;BME280;22383;51.114;13.666;2023-02-15T04:42:22;67043.66;;;-1.39;100.00
36354;BME280;22383;51.114;13.666;2023-02-15T04:44:49;67036.78;;;-1.41;100.00
36354;BME280;22383;51.114;13.666;2023-02-15T04:47:16;67043.44;;;-1.42;100.00
36354;BME280;22383;51.114;13.666;2023-02-15T04:49:43;67042.53;;;-1.40;100.00
36354;BME280;22383;51.114;13.666;2023-02-15T04:52:10;67040.28;;;-1.42;100.00
36354;BME280;22383;51.114;13.666;2023-02-15T04:54:37;67041.75;;;-1.43;100.00
36354;BME280;22383;51.114;13.666;2023-02-15T04:57:05;67041.06;;;-1.39;100.00
36354;BME280;22383;51.114;13.666;2023-02-15T04:59:33;67041.41;;;-1.41;100.00
36354;BME280;22383;51.114;13.666;2023-02-15T05:02:00;67035.44;;;-1.44;100.00
36354;BME280;22383;51.114;13.666;2023-02-15T05:04:27;67033.97;;;-1.43;100.00
36354;BME280;22383;51.114;13.666;2023-02-15T05:06:54;67036.34;;;-1.46;100.00
36354;BME280;22383;51.114;13.666;2023-02-15T05:09:21;67034.34;;;-1.45;100.00
36354;BME280;22383;51.114;13.666;2023-02-15T05:11:48;67033.56;;;-1.48;100.00
36354;BME280;22383;51.114;13.666;2023-02-15T05:14:15;67029.28;;;-1.50;100.00
36354;BME280;22383;51.114;13.666;2023-02-15T05:16:43;67022.53;;;-1.56;100.00
36354;BME280;22383;51.114;13.666;2023-02-15T05:19:10;67024.78;;;-1.54;100.00
36354;BME280;22383;51.114;13.666;2023-02-15T05:21:37;67021.41;;;-1.57;100.00
36354;BME280;22383;51.114;13.666;2023-02-15T05:24:04;67023.78;;;-1.60;100.00
36354;BME280;22383;51.114;13.666;2023-02-15T05:26:51;67022.13;;;-1.61;100.00
36354;BME280;22383;51.114;13.666;2023-02-15T05:29:37;67017.28;;;-1.63;100.00
36354;BME280;22383;51.114;13.666;2023-02-15T05:32:04;67013.56;;;-1.64;100.00
36354;BME280;22383;51.114;13.666;2023-02-15T05:34:31;67013.91;;;-1.66;100.00
36354;BME280;22383;51.114;13.666;2023-02-15T05:36:58;67022.13;;;-1.61;100.00
36354;BME280;22383;51.114;13.666;2023-02-15T05:39:26;67014.69;;;-1.63;100.00
36354;BME280;22383;51.114;13.666;2023-02-15T05:41:53;67018.41;;;-1.62;100.00
36354;BME280;22383;51.114;13.666;2023-02-15T05:44:20;67013.56;;;-1.64;100.00
36354;BME280;22383;51.114;13.666;2023-02-15T05:46:47;67015.03;;;-1.65;100.00
36354;BME280;22383;51.114;13.666;2023-02-15T05:49:14;67013.00;;;-1.65;100.00
36354;BME280;22383;51.114;13.666;2023-02-15T05:51:41;67018.97;;;-1.62;100.00
36354;BME280;22383;51.114;13.666;2023-02-15T05:54:08;67018.75;;;-1.64;100.00
36354;BME280;22383;51.114;13.666;2023-02-15T05:56:35;67012.78;;;-1.67;100.00
36354;BME280;22383;51.114;13.666;2023-02-15T05:59:02;67010.75;;;-1.67;100.00
36354;BME280;22383;51.114;13.666;2023-02-15T06:01:29;67009.63;;;-1.68;100.00
36354;BME280;22383;51.114;13.666;2023-02-15T06:03:56;67013.69;;;-1.69;100.00
36354;BME280;22383;51.114;13.666;2023-02-15T06:06:23;67009.63;;;-1.68;100.00
36354;BME280;22383;51.114;13.666;2023-02-15T06:08:50;67012.78;;;-1.67;100.00
36354;BME280;22383;51.114;13.666;2023-02-15T06:11:18;67011.31;;;-1.66;100.00
36354;BME280;22383;51.114;13.666;2023-02-15T06:13:45;67015.59;;;-1.65;100.00
36354;BME280;22383;51.114;13.666;2023-02-15T06:16:12;67017.63;;;-1.65;100.00
36354;BME280;22383;51.114;13.666;2023-02-15T06:18:39;67015.03;;;-1.65;100.00
36354;BME280;22383;51.114;13.666;2023-02-15T06:21:06;67013.13;;;-1.69;100.00
36354;BME280;22383;51.114;13.666;2023-02-15T06:23:34;67009.41;;;-1.71;100.00
36354;BME280;22383;51.114;13.666;2023-02-15T06:26:01;67006.63;;;-1.73;100.00
36354;BME280;22383;51.114;13.666;2023-02-15T06:28:28;67008.88;;;-1.71;100.00
36354;BME280;22383;51.114;13.666;2023-02-15T06:30:55;67014.25;;;-1.68;100.00
36354;BME280;22383;51.114;13.666;2023-02-15T06:33:23;67010.75;;;-1.67;100.00
36354;BME280;22383;51.114;13.666;2023-02-15T06:35:50;67018.75;;;-1.64;100.00
36354;BME280;22383;51.114;13.666;2023-02-15T06:38:17;67014.69;;;-1.63;100.00
36354;BME280;22383;51.114;13.666;2023-02-15T06:40:46;67025.69;;;-1.56;100.00
36354;BME280;22383;51.114;13.666;2023-02-15T06:43:13;67021.28;;;-1.53;100.00
36354;BME280;22383;51.114;13.666;2023-02-15T06:45:41;67022.53;;;-1.56;100.00
36354;BME280;22383;51.114;13.666;2023-02-15T06:48:08;67025.34;;;-1.54;100.00
36354;BME280;22383;51.114;13.666;2023-02-15T06:50:36;67030.41;;;-1.49;100.00
36354;BME280;22383;51.114;13.666;2023-02-15T06:53:03;67039.94;;;-1.40;100.00
36354;BME280;22383;51.114;13.666;2023-02-15T06:55:31;67040.50;;;-1.40;100.00
36354;BME280;22383;51.114;13.666;2023-02-15T06:57:58;67039.72;;;-1.43;100.00
36354;BME280;22383;51.114;13.666;2023-02-15T07:00:25;67037.13;;;-1.43;100.00
36354;BME280;22383;51.114;13.666;2023-02-15T07:02:57;67038.81;;;-1.41;100.00
36354;BME280;22383;51.114;13.666;2023-02-15T07:05:28;67042.75;;;-1.38;100.00
36354;BME280;22383;51.114;13.666;2023-02-15T07:07:58;67048.34;;;-1.33;100.00
36354;BME280;22383;51.114;13.666;2023-02-15T07:10:26;67055.44;;;-1.28;100.00
36354;BME280;22383;51.114;13.666;2023-02-15T07:12:53;67058.81;;;-1.25;100.00
36354;BME280;22383;51.114;13.666;2023-02-15T07:15:21;67060.13;;;-1.22;100.00
36354;BME280;22383;51.114;13.666;2023-02-15T07:17:48;67072.63;;;-1.15;100.00
36354;BME280;22383;51.114;13.666;2023-02-15T07:20:18;67073.47;;;-1.05;100.00
36354;BME280;22383;51.114;13.666;2023-02-15T07:22:46;67082.81;;;-0.99;100.00
36354;BME280;22383;51.114;13.666;2023-02-15T07:25:16;67093.25;;;-0.91;100.00
36354;BME280;22383;51.114;13.666;2023-02-15T07:27:43;67102.81;;;-0.83;100.00
36354;BME280;22383;51.114;13.666;2023-02-15T07:30:14;67103.72;;;-0.84;100.00
36354;BME280;22383;51.114;13.666;2023-02-15T07:32:44;67103.03;;;-0.80;100.00
36354;BME280;22383;51.114;13.666;2023-02-15T07:35:32;67113.47;;;-0.73;100.00
36354;BME280;22383;51.114;13.666;2023-02-15T07:38:00;67128.44;;;-0.62;100.00
36354;BME280;22383;51.114;13.666;2023-02-15T07:40:27;67139.66;;;-0.51;100.00
36354;BME280;22383;51.114;13.666;2023-02-15T07:42:58;67141.78;;;-0.45;100.00
36354;BME280;22383;51.114;13.666;2023-02-15T07:45:31;67142.91;;;-0.44;100.00
36354;BME280;22383;51.114;13.666;2023-02-15T07:48:00;67151.69;;;-0.38;100.00
36354;BME280;22383;51.114;13.666;2023-02-15T07:50:27;67154.47;;;-0.35;100.00
36354;BME280;22383;51.114;13.666;2023-02-15T07:52:55;67168.53;;;-0.23;100.00
36354;BME280;22383;51.114;13.666;2023-02-15T07:55:24;67182.56;;;-0.10;100.00
36354;BME280;22383;51.114;13.666;2023-02-15T07:57:51;67211.78;;;0.17;100.00
36354;BME280;22383;51.114;13.666;2023-02-15T08:00:22;67249.09;;;0.53;100.00
36354;BME280;22383;51.114;13.666;2023-02-15T08:02:54;67270.25;;;0.70;100.00
36354;BME280;22383;51.114;13.666;2023-02-15T08:05:44;67286.56;;;0.85;100.00
36354;BME280;22383;51.114;13.666;2023-02-15T08:08:12;67277.41;;;0.82;100.00
36354;BME280;22383;51.114;13.666;2023-02-15T08:11:05;67320.31;;;1.16;100.00
36354;BME280;22383;51.114;13.666;2023-02-15T08:14:05;67366.81;;;1.56;100.00
36354;BME280;22383;51.114;13.666;2023-02-15T08:19:25;67478.69;;;2.63;100.00
36354;BME280;22383;51.114;13.666;2023-02-15T08:21:55;67544.97;;;3.21;100.00
36354;BME280;22383;51.114;13.666;2023-02-15T08:24:26;67581.00;;;3.54;100.00
36354;BME280;22383;51.114;13.666;2023-02-15T08:26:54;67597.56;;;3.71;100.00
36354;BME280;22383;51.114;13.666;2023-02-15T08:29:25;67554.94;;;3.35;100.00
36354;BME280;22383;51.114;13.666;2023-02-15T08:31:54;67528.25;;;3.08;100.00
36354;BME280;22383;51.114;13.666;2023-02-15T08:34:30;67531.44;;;3.09;100.00
36354;BME280;22383;51.114;13.666;2023-02-15T08:36:58;67564.31;;;3.41;100.00
36354;BME280;22383;51.114;13.666;2023-02-15T08:39:25;67637.97;;;4.06;100.00
36354;BME280;22383;51.114;13.666;2023-02-15T08:41:52;67690.63;;;4.56;100.00
36354;BME280;22383;51.114;13.666;2023-02-15T08:44:19;67747.41;;;5.05;100.00
36354;BME280;22383;51.114;13.666;2023-02-15T08:46:48;67701.91;;;4.66;100.00
36354;BME280;22383;51.114;13.666;2023-02-15T08:49:18;67680.25;;;4.44;100.00
36354;BME280;22383;51.114;13.666;2023-02-15T08:51:48;67650.34;;;4.17;100.00
36354;BME280;22383;51.114;13.666;2023-02-15T08:54:20;67692.09;;;4.55;100.00
36354;BME280;22383;51.114;13.666;2023-02-15T08:56:47;67691.75;;;4.57;100.00
36354;BME280;22383;51.114;13.666;2023-02-15T08:59:21;67683.44;;;4.45;100.00
36354;BME280;22383;51.114;13.666;2023-02-15T09:01:50;67666.16;;;4.31;100.00
36354;BME280;22383;51.114;13.666;2023-02-15T09:04:22;67670.47;;;4.33;100.00
36354;BME280;22383;51.114;13.666;2023-02-15T09:06:49;67624.44;;;3.93;100.00
36354;BME280;22383;51.114;13.666;2023-02-15T09:09:17;67623.28;;;3.92;100.00
36354;BME280;22383;51.114;13.666;2023-02-15T09:11:50;67666.16;;;4.31;100.00
36354;BME280;22383;51.114;13.666;2023-02-15T09:14:25;67678.94;;;4.41;100.00
36354;BME280;22383;51.114;13.666;2023-02-15T09:16:54;67697.75;;;4.60;100.00
36354;BME280;22383;51.114;13.666;2023-02-15T09:19:24;67695.88;;;4.56;100.00
36354;BME280;22383;51.114;13.666;2023-02-15T09:21:51;67709.81;;;4.73;100.00
36354;BME280;22383;51.114;13.666;2023-02-15T09:24:19;67741.41;;;5.02;100.00
36354;BME280;22383;51.114;13.666;2023-02-15T09:26:47;67749.09;;;5.07;100.00
36354;BME280;22383;51.114;13.666;2023-02-15T09:29:16;67739.50;;;4.98;100.00
36354;BME280;22383;51.114;13.666;2023-02-15T09:31:46;67710.38;;;4.74;100.00
36354;BME280;22383;51.114;13.666;2023-02-15T09:34:15;67745.72;;;5.04;100.00
36354;BME280;22383;51.114;13.666;2023-02-15T09:36:44;67782.97;;;5.38;100.00
36354;BME280;22383;51.114;13.666;2023-02-15T09:39:14;67766.78;;;5.25;100.00
36354;BME280;22383;51.114;13.666;2023-02-15T09:45:07;67769.41;;;5.25;100.00
36354;BME280;22383;51.114;13.666;2023-02-15T09:47:49;67777.16;;;5.37;100.00
36354;BME280;22383;51.114;13.666;2023-02-15T10:02:34;67808.94;;;5.61;100.00
36354;BME280;22383;51.114;13.666;2023-02-15T10:05:43;67830.03;;;5.83;100.00
36354;BME280;22383;51.114;13.666;2023-02-15T10:11:09;67837.75;;;5.87;100.00
36354;BME280;22383;51.114;13.666;2023-02-15T10:22:30;67773.00;;;5.31;100.00
36354;BME280;22383;51.114;13.666;2023-02-15T10:27:52;67776.19;;;5.32;100.00
36354;BME280;22383;51.114;13.666;2023-02-15T10:33:07;67757.19;;;5.17;100.00
36354;BME280;22383;51.114;13.666;2023-02-15T10:35:47;67759.34;;;5.38;100.00
36354;BME280;22383;51.114;13.666;2023-02-15T10:41:27;67802.16;;;5.55;100.00
36354;BME280;22383;51.114;13.666;2023-02-15T10:44:13;67776.75;;;5.32;100.00
36354;BME280;22383;51.114;13.666;2023-02-15T10:50:03;67768.84;;;5.25;100.00
36354;BME280;22383;51.114;13.666;2023-02-15T10:53:13;67754.38;;;5.14;100.00
36354;BME280;22383;51.114;13.666;2023-02-15T11:01:27;67782.97;;;5.38;100.00
36354;BME280;22383;51.114;13.666;2023-02-15T11:06:48;67790.31;;;5.44;100.00
36354;BME280;22383;51.114;13.666;2023-02-15T11:09:21;67781.25;;;5.36;100.00
36354;BME280;22383;51.114;13.666;2023-02-15T11:11:55;67803.66;;;5.54;100.00
36354;BME280;22383;51.114;13.666;2023-02-15T11:14:35;67806.88;;;5.62;100.00
36354;BME280;22383;51.114;13.666;2023-02-15T11:17:13;67806.09;;;5.59;100.00
36354;BME280;22383;51.114;13.666;2023-02-15T11:23:01;67812.31;;;5.64;100.00
36354;BME280;22383;51.114;13.666;2023-02-15T11:25:31;67819.88;;;5.74;100.00
36354;BME280;22383;51.114;13.666;2023-02-15T11:28:00;67821.53;;;5.68;100.00
36354;BME280;22383;51.114;13.666;2023-02-15T11:31:10;67813.63;;;5.61;100.00
36354;BME280;22383;51.114;13.666;2023-02-15T11:33:42;67852.06;;;6.03;100.00
36354;BME280;22383;51.114;13.666;2023-02-15T11:36:18;67855.28;;;6.03;100.00
36354;BME280;22383;51.114;13.666;2023-02-15T11:38:48;67861.09;;;6.04;100.00
36354;BME280;22383;51.114;13.666;2023-02-15T11:41:34;67869.38;;;6.16;100.00
36354;BME280;22383;51.114;13.666;2023-02-15T11:44:11;67860.94;;;6.09;100.00
36354;BME280;22383;51.114;13.666;2023-02-15T11:46:45;67845.44;;;5.92;100.00
36354;BME280;22383;51.114;13.666;2023-02-15T11:49:32;67851.88;;;6.00;100.00
36354;BME280;22383;51.114;13.666;2023-02-15T11:52:14;67845.31;;;5.97;100.00
36354;BME280;22383;51.114;13.666;2023-02-15T11:54:50;67863.56;;;6.09;100.00
36354;BME280;22383;51.114;13.666;2023-02-15T11:57:38;67896.31;;;6.38;100.00
36354;BME280;22383;51.114;13.666;2023-02-15T12:00:32;67878.25;;;6.29;100.00
36354;BME280;22383;51.114;13.666;2023-02-15T12:03:16;67878.44;;;6.24;100.00
36354;BME280;22383;51.114;13.666;2023-02-15T12:05:54;67884.28;;;6.32;100.00
36354;BME280;22383;51.114;13.666;2023-02-15T12:08:23;67883.72;;;6.32;100.00
36354;BME280;22383;51.114;13.666;2023-02-15T12:10:55;67881.25;;;6.27;100.00
36354;BME280;22383;51.114;13.666;2023-02-15T12:13:28;67886.34;;;6.32;100.00
36354;BME280;22383;51.114;13.666;2023-02-15T12:15:58;67864.38;;;6.33;100.00
36354;BME280;22383;51.114;13.666;2023-02-15T12:18:43;67903.84;;;6.48;100.00
36354;BME280;22383;51.114;13.666;2023-02-15T12:21:25;67902.53;;;6.44;100.00
36354;BME280;22383;51.114;13.666;2023-02-15T12:23:59;67909.50;;;6.53;100.00
36354;BME280;22383;51.114;13.666;2023-02-15T12:26:34;67893.88;;;6.41;100.00
36354;BME280;22383;51.114;13.666;2023-02-15T12:29:24;67884.47;;;6.28;100.00
36354;BME280;22383;51.114;13.666;2023-02-15T12:32:00;67866.00;;;6.13;100.00
36354;BME280;22383;51.114;13.666;2023-02-15T12:34:37;67880.13;;;6.26;100.00
36354;BME280;22383;51.114;13.666;2023-02-15T12:37:15;67888.03;;;6.33;100.00
36354;BME280;22383;51.114;13.666;2023-02-15T12:39:57;67890.47;;;6.38;100.00
36354;BME280;22383;51.114;13.666;2023-02-15T12:42:47;67883.50;;;6.29;100.00
36354;BME280;22383;51.114;13.666;2023-02-15T12:45:38;67919.13;;;6.61;100.00
36354;BME280;22383;51.114;13.666;2023-02-15T12:50:43;67907.63;;;6.49;100.00
36354;BME280;22383;51.114;13.666;2023-02-15T12:53:21;67911.38;;;6.57;100.00
36354;BME280;22383;51.114;13.666;2023-02-15T12:55:55;67893.88;;;6.41;100.00
36354;BME280;22383;51.114;13.666;2023-02-15T12:58:34;67896.50;;;6.41;100.00
36354;BME280;22383;51.114;13.666;2023-02-15T13:01:21;67872.28;;;6.40;100.00
36354;BME280;22383;51.114;13.666;2023-02-15T13:04:28;67888.44;;;6.38;100.00
36354;BME280;22383;51.114;13.666;2023-02-15T13:07:04;67891.78;;;6.34;100.00
36354;BME280;22383;51.114;13.666;2023-02-15T13:12:22;67914.22;;;6.59;100.00
36354;BME280;22383;51.114;13.666;2023-02-15T13:14:56;67924.19;;;6.66;100.00
36354;BME280;22383;51.114;13.666;2023-02-15T13:17:32;67913.66;;;6.59;100.00
36354;BME280;22383;51.114;13.666;2023-02-15T13:20:18;67915.72;;;6.58;100.00
36354;BME280;22383;51.114;13.666;2023-02-15T13:23:01;67928.34;;;6.72;100.00
36354;BME280;22383;51.114;13.666;2023-02-15T13:25:47;67924.59;;;6.71;100.00
36354;BME280;22383;51.114;13.666;2023-02-15T13:28:19;67918.75;;;6.63;100.00
36354;BME280;22383;51.114;13.666;2023-02-15T13:30:49;67921.00;;;6.66;100.00
36354;BME280;22383;51.114;13.666;2023-02-15T13:36:05;67927.59;;;6.69;100.00
36354;BME280;22383;51.114;13.666;2023-02-15T13:45:30;67925.72;;;6.72;100.00
36354;BME280;22383;51.114;13.666;2023-02-15T13:48:20;67942.84;;;6.83;100.00
36354;BME280;22383;51.114;13.666;2023-02-15T13:56:21;67932.13;;;6.73;100.00
36354;BME280;22383;51.114;13.666;2023-02-15T14:01:52;67927.03;;;6.69;100.00
36354;BME280;22383;51.114;13.666;2023-02-15T14:04:53;67913.47;;;6.56;100.00
36354;BME280;22383;51.114;13.666;2023-02-15T14:10:47;67890.13;;;6.40;100.00
36354;BME280;22383;51.114;13.666;2023-02-15T14:16:14;67883.69;;;6.24;100.00
36354;BME280;22383;51.114;13.666;2023-02-15T14:19:44;67867.50;;;6.12;100.00
36354;BME280;22383;51.114;13.666;2023-02-15T14:21:54;67873.50;;;6.15;100.00
36354;BME280;22383;51.114;13.666;2023-02-15T14:24:41;67874.47;;;6.21;100.00
36354;BME280;22383;51.114;13.666;2023-02-15T14:27:34;67865.06;;;6.15;100.00
36354;BME280;22383;51.114;13.666;2023-02-15T14:30:18;67865.44;;;6.13;100.00
36354;BME280;22383;51.114;13.666;2023-02-15T14:32:56;67863.56;;;6.09;100.00
36354;BME280;22383;51.114;13.666;2023-02-15T14:35:29;67866.00;;;6.13;100.00
36354;BME280;22383;51.114;13.666;2023-02-15T14:38:31;67863.19;;;6.11;100.00
36354;BME280;22383;51.114;13.666;2023-02-15T14:41:15;67833.03;;;5.81;100.00
36354;BME280;22383;51.114;13.666;2023-02-15T14:44:13;67827.56;;;5.78;100.00
36354;BME280;22383;51.114;13.666;2023-02-15T14:46:50;67817.03;;;5.71;100.00
36354;BME280;22383;51.114;13.666;2023-02-15T14:49:39;67840.78;;;5.93;100.00
36354;BME280;22383;51.114;13.666;2023-02-15T14:52:08;67847.13;;;5.94;100.00
36354;BME280;22383;51.114;13.666;2023-02-15T14:57:30;67818.53;;;5.70;100.00
36354;BME280;22383;51.114;13.666;2023-02-15T15:00:05;67815.72;;;5.67;100.00
36354;BME280;22383;51.114;13.666;2023-02-15T15:02:56;67814.00;;;5.66;100.00
36354;BME280;22383;51.114;13.666;2023-02-15T15:05:32;67792.78;;;5.49;100.00
36354;BME280;22383;51.114;13.666;2023-02-15T15:08:38;67779.38;;;5.32;100.00